createdAt,value
2019-04-01T00:02:04.270Z,96385.66
2019-04-01T00:04:30.865Z,96385.30
2019-04-01T00:06:57.559Z,96387.09
2019-04-01T00:09:24.151Z,96382.78
2019-04-01T00:11:50.781Z,96381.20
2019-04-01T00:14:17.389Z,96379.86
2019-04-01T00:16:44.005Z,96380.39
2019-04-01T00:19:10.609Z,96380.39
2019-04-01T00:21:37.212Z,96378.81
2019-04-01T00:24:03.817Z,96376.42
2019-04-01T00:26:30.412Z,96382.55
2019-04-01T00:28:57.015Z,96381.44
2019-04-01T00:31:23.649Z,96371.45
2019-04-01T00:33:50.236Z,96375.94
2019-04-01T00:36:16.833Z,96372.96
2019-04-01T00:38:43.613Z,96371.03
2019-04-01T00:41:10.206Z,96373.16
2019-04-01T00:43:56.278Z,96374.37
2019-04-01T00:46:22.981Z,96370.80
2019-04-01T00:48:49.770Z,96373.95
2019-04-01T00:51:16.367Z,96373.29
2019-04-01T00:53:42.984Z,96373.25
2019-04-01T00:56:09.597Z,96373.94
2019-04-01T00:58:36.210Z,96369.03
2019-04-01T01:01:02.808Z,96373.22
2019-04-01T01:03:29.433Z,96366.15
2019-04-01T01:05:56.139Z,96364.73
2019-04-01T01:08:22.760Z,96363.59
2019-04-01T01:10:49.377Z,96365.91
2019-04-01T01:13:15.982Z,96365.55
2019-04-01T01:15:42.600Z,96368.68
2019-04-01T01:18:09.190Z,96369.50
2019-04-01T01:20:35.796Z,96366.81
2019-04-01T01:23:02.408Z,96364.66
2019-04-01T01:25:29.001Z,96360.86
2019-04-01T01:27:55.694Z,96366.22
2019-04-01T01:30:22.371Z,96358.47
2019-04-01T01:32:49.054Z,96365.77
2019-04-01T01:35:15.711Z,96361.74
2019-04-01T01:37:42.394Z,96363.38
2019-04-01T01:40:09.775Z,96364.42
2019-04-01T01:42:36.478Z,96362.20
2019-04-01T01:45:03.124Z,96363.77
2019-04-01T01:47:29.820Z,96366.16
2019-04-01T01:49:56.497Z,96362.61
2019-04-01T01:52:23.100Z,96366.56
2019-04-01T01:54:49.699Z,96362.47
2019-04-01T01:57:16.289Z,96364.56
2019-04-01T01:59:42.879Z,96361.00
2019-04-01T02:02:09.498Z,96363.60
2019-04-01T02:04:36.472Z,96358.69
2019-04-01T02:07:03.095Z,96364.02
2019-04-01T02:09:29.683Z,96365.55
2019-04-01T02:11:56.315Z,96371.66
2019-04-01T02:14:22.955Z,96376.12
2019-04-01T02:16:49.543Z,96367.49
2019-04-01T02:19:16.178Z,96370.63
2019-04-01T02:21:42.871Z,96367.58
2019-04-01T02:24:09.489Z,96374.75
2019-04-01T02:26:36.080Z,96375.80
2019-04-01T02:29:02.687Z,96372.45
2019-04-01T02:31:29.288Z,96370.52
2019-04-01T02:33:55.894Z,96375.28
2019-04-01T02:36:22.513Z,96369.02
2019-04-01T02:38:49.206Z,96375.13
2019-04-01T02:41:15.812Z,96371.59
2019-04-01T02:43:42.487Z,96376.05
2019-04-01T02:46:09.118Z,96373.81
2019-04-01T02:48:35.928Z,96371.80
2019-04-01T02:51:02.613Z,96371.95
2019-04-01T02:53:29.243Z,96369.45
2019-04-01T02:55:55.941Z,96369.07
2019-04-01T02:58:22.640Z,96371.38
2019-04-01T03:00:49.244Z,96372.34
2019-04-01T03:03:15.930Z,96369.58
2019-04-01T03:05:42.660Z,96371.61
2019-04-01T03:08:09.249Z,96378.53
2019-04-01T03:10:35.872Z,96370.94
2019-04-01T03:13:02.465Z,96377.55
2019-04-01T03:15:29.098Z,96375.61
2019-04-01T03:17:55.692Z,96373.89
2019-04-01T03:20:22.301Z,96374.03
2019-04-01T03:22:49.001Z,96372.64
2019-04-01T03:25:35.088Z,96367.73
2019-04-01T03:28:01.683Z,96367.34
2019-04-01T03:30:28.275Z,96366.23
2019-04-01T03:32:54.984Z,96373.87
2019-04-01T03:35:21.686Z,96372.23
2019-04-01T03:37:48.388Z,96373.50
2019-04-01T03:40:16.973Z,96373.72
2019-04-01T03:42:43.577Z,96373.14
2019-04-01T03:45:10.211Z,96370.09
2019-04-01T03:47:36.828Z,96370.82
2019-04-01T03:50:03.468Z,96370.22
2019-04-01T03:52:30.156Z,96371.25
2019-04-01T03:54:56.861Z,96375.70
2019-04-01T03:57:23.547Z,96378.08
2019-04-01T03:59:50.149Z,96370.78
2019-04-01T04:02:16.775Z,96369.92
2019-04-01T04:04:43.378Z,96374.66
2019-04-01T04:07:10.113Z,96373.46
2019-04-01T04:09:36.798Z,96376.66
2019-04-01T04:12:03.426Z,96374.50
2019-04-01T04:14:30.200Z,96376.35
2019-04-01T04:16:56.839Z,96376.78
2019-04-01T04:19:23.437Z,96379.38
2019-04-01T04:21:50.037Z,96378.55
2019-04-01T04:24:16.648Z,96382.78
2019-04-01T04:26:43.250Z,96380.84
2019-04-01T04:29:09.954Z,96380.57
2019-04-01T04:31:36.560Z,96378.33
2019-04-01T04:34:03.260Z,96384.71
2019-04-01T04:36:29.857Z,96386.18
2019-04-01T04:38:56.609Z,96385.05
2019-04-01T04:41:23.298Z,96382.38
2019-04-01T04:43:49.968Z,96380.53
2019-04-01T04:46:16.574Z,96376.52
2019-04-01T04:48:43.170Z,96382.90
2019-04-01T04:51:09.757Z,96384.67
2019-04-01T04:53:36.354Z,96382.72
2019-04-01T04:56:03.045Z,96375.73
2019-04-01T04:58:29.647Z,96377.80
2019-04-01T05:00:56.233Z,96376.47
2019-04-01T05:03:22.850Z,96379.39
2019-04-01T05:05:49.533Z,96382.88
2019-04-01T05:08:16.237Z,96377.12
2019-04-01T05:10:42.919Z,96379.34
2019-04-01T05:13:09.630Z,96379.47
2019-04-01T05:15:36.211Z,96390.31
2019-04-01T05:18:02.808Z,96389.52
2019-04-01T05:20:29.622Z,96378.58
2019-04-01T05:22:56.215Z,96388.55
2019-04-01T05:25:22.784Z,96393.75
2019-04-01T05:27:49.412Z,96393.94
2019-04-01T05:30:16.093Z,96388.08
2019-04-01T05:32:42.714Z,96395.67
2019-04-01T05:35:09.398Z,96398.13
2019-04-01T05:37:36.016Z,96394.03
2019-04-01T05:40:02.976Z,96398.55
2019-04-01T05:42:29.598Z,96398.73
2019-04-01T05:44:56.198Z,96398.19
2019-04-01T05:50:06.159Z,96399.25
2019-04-01T05:52:32.868Z,96402.20
2019-04-01T05:54:59.464Z,96403.96
2019-04-01T05:57:26.070Z,96404.02
2019-04-01T05:59:52.721Z,96403.52
2019-04-01T06:02:19.367Z,96402.80
2019-04-01T06:04:45.959Z,96408.53
2019-04-01T06:07:12.547Z,96403.00
2019-04-01T06:09:39.174Z,96403.78
2019-04-01T06:12:05.778Z,96399.66
2019-04-01T06:14:32.390Z,96400.05
2019-04-01T06:16:59.003Z,96399.80
2019-04-01T06:19:25.695Z,96398.92
2019-04-01T06:21:52.390Z,96398.88
2019-04-01T06:24:19.012Z,96396.22
2019-04-01T06:26:45.717Z,96393.83
2019-04-01T06:29:12.323Z,96399.16
2019-04-01T06:31:38.971Z,96400.16
2019-04-01T06:34:05.657Z,96399.62
2019-04-01T06:36:32.268Z,96400.22
2019-04-01T06:38:58.871Z,96396.44
2019-04-01T06:41:25.475Z,96400.25
2019-04-01T06:43:52.082Z,96400.05
2019-04-01T06:46:18.770Z,96402.80
2019-04-01T06:48:45.373Z,96401.52
2019-04-01T06:51:11.995Z,96405.28
2019-04-01T06:53:38.598Z,96402.59
2019-04-01T06:56:05.573Z,96401.92
2019-04-01T06:58:32.187Z,96397.27
2019-04-01T07:00:58.924Z,96397.55
2019-04-01T07:03:25.529Z,96397.59
2019-04-01T07:05:52.194Z,96399.22
2019-04-01T07:08:18.900Z,96397.05
2019-04-01T07:10:45.495Z,96393.44
2019-04-01T07:13:12.097Z,96393.23
2019-04-01T07:15:38.814Z,96392.52
2019-04-01T07:18:05.509Z,96397.17
2019-04-01T07:20:32.118Z,96399.27
2019-04-01T07:22:58.834Z,96398.98
2019-04-01T07:25:25.520Z,96396.00
2019-04-01T07:27:52.252Z,96393.44
2019-04-01T07:30:18.846Z,96391.53
2019-04-01T07:32:45.498Z,96391.47
2019-04-01T07:35:12.184Z,96393.77
2019-04-01T07:37:39.046Z,96397.23
2019-04-01T07:40:05.723Z,96403.12
2019-04-01T07:42:32.382Z,96397.58
2019-04-01T07:44:59.037Z,96396.69
2019-04-01T07:47:25.634Z,96397.93
2019-04-01T07:49:52.270Z,96404.97
2019-04-01T07:52:18.872Z,96405.86
2019-04-01T07:54:45.497Z,96412.00
2019-04-01T07:57:12.221Z,96412.58
2019-04-01T07:59:38.923Z,96408.63
2019-04-01T08:02:05.654Z,96402.69
2019-04-01T08:04:32.383Z,96397.12
2019-04-01T08:06:58.994Z,96398.28
2019-04-01T08:09:25.627Z,96399.19
2019-04-01T08:11:52.243Z,96409.56
2019-04-01T08:14:18.946Z,96392.97
2019-04-01T08:16:45.560Z,96399.99
2019-04-01T08:19:12.160Z,96405.54
2019-04-01T08:21:39.117Z,96405.77
2019-04-01T08:24:05.823Z,96404.09
2019-04-01T08:26:32.443Z,96395.77
2019-04-01T08:28:59.066Z,96400.62
2019-04-01T08:31:25.706Z,96403.66
2019-04-01T08:36:31.053Z,96407.96
2019-04-01T08:38:57.670Z,96407.44
2019-04-01T08:41:24.402Z,96405.55
2019-04-01T08:43:51.121Z,96415.57
2019-04-01T08:46:17.843Z,96409.33
2019-04-01T08:48:44.590Z,96413.65
2019-04-01T08:51:11.211Z,96412.42
2019-04-01T08:53:37.919Z,96402.27
2019-04-01T08:56:04.555Z,96400.72
2019-04-01T08:58:31.144Z,96396.81
2019-04-01T09:00:57.823Z,96393.16
2019-04-01T09:03:24.526Z,96387.27
2019-04-01T09:05:51.195Z,96394.39
2019-04-01T09:08:17.895Z,96388.17
2019-04-01T09:10:44.603Z,96392.57
2019-04-01T09:13:11.223Z,96385.91
2019-04-01T09:15:37.954Z,96389.18
2019-04-01T09:18:04.605Z,96388.92
2019-04-01T09:20:31.285Z,96388.33
2019-04-01T09:22:59.403Z,96384.59
2019-04-01T09:25:36.515Z,96381.02
2019-04-01T09:28:03.229Z,96375.22
2019-04-01T09:30:29.862Z,96375.55
2019-04-01T09:32:56.589Z,96371.34
2019-04-01T09:35:23.298Z,96382.97
2019-04-01T09:37:49.996Z,96383.78
2019-04-01T09:40:36.073Z,96385.67
2019-04-01T09:43:02.690Z,96376.70
2019-04-01T09:45:29.387Z,96375.14
2019-04-01T09:47:55.986Z,96375.79
2019-04-01T09:50:22.594Z,96366.88
2019-04-01T09:52:49.195Z,96366.67
2019-04-01T09:55:35.309Z,96361.61
2019-04-01T09:58:02.020Z,96354.89
2019-04-01T10:00:28.736Z,96358.20
2019-04-01T10:02:55.386Z,96350.66
2019-04-01T10:05:21.995Z,96354.52
2019-04-01T10:07:48.687Z,96353.52
2019-04-01T10:10:28.670Z,96347.28
2019-04-01T10:12:55.296Z,96350.86
2019-04-01T10:15:21.920Z,96348.98
2019-04-01T10:17:48.558Z,96340.92
2019-04-01T10:20:15.270Z,96332.28
2019-04-01T10:22:41.954Z,96335.28
2019-04-01T10:25:08.581Z,96332.59
2019-04-01T10:27:35.306Z,96334.23
2019-04-01T10:30:02.043Z,96327.18
2019-04-01T10:32:28.757Z,96329.33
2019-04-01T10:34:55.503Z,96329.61
2019-04-01T10:37:22.116Z,96329.06
2019-04-01T10:39:48.828Z,96326.86
2019-04-01T10:42:15.555Z,96316.96
2019-04-01T10:44:42.272Z,96317.16
2019-04-01T10:47:09.036Z,96317.63
2019-04-01T10:49:35.800Z,96309.91
2019-04-01T10:52:02.554Z,96312.23
2019-04-01T10:54:29.277Z,96303.92
2019-04-01T10:56:55.985Z,96312.50
2019-04-01T10:59:22.702Z,96315.98
2019-04-01T11:01:49.434Z,96305.45
2019-04-01T11:04:16.210Z,96309.17
2019-04-01T11:06:42.919Z,96309.33
2019-04-01T11:12:04.293Z,96304.48
2019-04-01T11:14:31.043Z,96296.66
2019-04-01T11:16:57.717Z,96288.17
2019-04-01T11:19:24.425Z,96281.05
2019-04-01T11:21:51.021Z,96280.84
2019-04-01T11:24:17.718Z,96278.64
2019-04-01T11:26:44.313Z,96268.14
2019-04-01T11:29:10.935Z,96273.92
2019-04-01T11:31:37.709Z,96268.44
2019-04-01T11:34:04.379Z,96274.28
2019-04-01T11:36:31.147Z,96268.06
2019-04-01T11:38:57.853Z,96264.98
2019-04-01T11:41:24.549Z,96263.96
2019-04-01T11:43:52.531Z,96262.11
2019-04-01T11:46:26.387Z,96265.88
2019-04-01T11:48:53.192Z,96264.34
2019-04-01T11:51:32.055Z,96251.98
2019-04-01T11:53:54.990Z,96259.10
2019-04-01T11:56:21.613Z,96248.84
2019-04-01T11:58:48.240Z,96243.17
2019-04-01T12:01:14.926Z,96238.59
2019-04-01T12:03:41.547Z,96239.67
2019-04-01T12:06:08.150Z,96235.88
2019-04-01T12:08:34.862Z,96233.82
2019-04-01T12:11:01.581Z,96224.20
2019-04-01T12:13:29.025Z,96228.42
2019-04-01T12:16:03.196Z,96221.70
2019-04-01T12:18:29.933Z,96220.70
2019-04-01T12:20:56.524Z,96216.23
2019-04-01T12:23:23.106Z,96212.75
2019-04-01T12:25:49.711Z,96206.80
2019-04-01T12:28:16.398Z,96198.58
2019-04-01T12:30:42.996Z,96196.41
2019-04-01T12:33:09.604Z,96204.86
2019-04-01T12:35:36.292Z,96196.21
2019-04-01T12:38:02.954Z,96191.22
2019-04-01T12:40:29.680Z,96189.48
2019-04-01T12:42:56.290Z,96190.23
2019-04-01T12:45:22.970Z,96190.31
2019-04-01T12:47:49.661Z,96180.92
2019-04-01T12:50:16.276Z,96176.22
2019-04-01T12:52:42.985Z,96171.09
2019-04-01T12:55:10.446Z,96177.84
2019-04-01T12:57:37.130Z,96177.95
2019-04-01T13:02:42.717Z,96168.46
2019-04-01T13:05:09.430Z,96164.41
2019-04-01T13:07:36.131Z,96150.28
2019-04-01T13:10:03.241Z,96152.94
2019-04-01T13:12:29.852Z,96150.95
2019-04-01T13:14:56.598Z,96147.35
2019-04-01T13:17:23.270Z,96135.38
2019-04-01T13:19:49.989Z,96135.23
2019-04-01T13:22:16.609Z,96131.44
2019-04-01T13:24:43.330Z,96132.31
2019-04-01T13:27:10.047Z,96124.01
2019-04-01T13:29:36.643Z,96118.17
2019-04-01T13:32:03.283Z,96119.38
2019-04-01T13:34:29.965Z,96116.55
2019-04-01T13:36:56.566Z,96114.39
2019-04-01T13:39:23.151Z,96116.19
2019-04-01T13:41:49.788Z,96106.73
2019-04-01T13:44:16.397Z,96106.87
2019-04-01T13:46:43.105Z,96099.69
2019-04-01T13:49:09.720Z,96093.30
2019-04-01T13:51:36.345Z,96087.36
2019-04-01T13:54:09.076Z,96081.50
2019-04-01T13:56:42.940Z,96083.30
2019-04-01T13:59:17.589Z,96073.62
2019-04-01T14:01:51.554Z,96076.58
2019-04-01T14:04:18.271Z,96077.73
2019-04-01T14:06:44.980Z,96076.41
2019-04-01T14:09:11.597Z,96067.39
2019-04-01T14:11:38.289Z,96065.14
2019-04-01T14:14:04.910Z,96065.00
2019-04-01T14:16:31.519Z,96065.63
2019-04-01T14:18:58.123Z,96063.51
2019-04-01T14:21:24.742Z,96062.86
2019-04-01T14:23:51.365Z,96057.50
2019-04-01T14:26:18.098Z,96055.88
2019-04-01T14:28:44.807Z,96055.88
2019-04-01T14:31:11.405Z,96051.68
2019-04-01T14:33:38.040Z,96053.98
2019-04-01T14:36:04.908Z,96053.27
2019-04-01T14:38:39.211Z,96049.39
2019-04-01T14:41:05.902Z,96047.22
2019-04-01T14:43:32.519Z,96043.23
2019-04-01T14:48:39.352Z,96037.27
2019-04-01T14:51:06.097Z,96034.71
2019-04-01T14:53:32.725Z,96030.09
2019-04-01T14:55:59.460Z,96029.78
2019-04-01T14:58:26.159Z,96031.13
2019-04-01T15:00:52.796Z,96033.64
2019-04-01T15:03:19.432Z,96028.09
2019-04-01T15:05:46.185Z,96024.89
2019-04-01T15:08:12.861Z,96025.97
2019-04-01T15:10:41.144Z,96024.20
2019-04-01T15:13:14.146Z,96018.24
2019-04-01T15:15:40.785Z,96022.66
2019-04-01T15:18:09.859Z,96019.88
2019-04-01T15:20:41.949Z,96011.25
2019-04-01T15:23:08.647Z,96018.52
2019-04-01T15:25:35.265Z,96007.55
2019-04-01T15:28:02.463Z,96010.05
2019-04-01T15:30:31.975Z,96005.03
2019-04-01T15:32:58.076Z,95997.17
2019-04-01T15:35:24.708Z,95998.52
2019-04-01T15:37:52.128Z,95999.50
2019-04-01T15:40:19.151Z,95995.23
2019-04-01T15:42:45.771Z,95999.00
2019-04-01T15:45:12.381Z,95995.80
2019-04-01T15:47:39.160Z,95997.50
2019-04-01T15:50:06.186Z,95993.78
2019-04-01T15:52:33.729Z,95993.87
2019-04-01T15:55:02.485Z,95995.03
2019-04-01T15:57:29.357Z,95993.18
2019-04-01T15:59:55.997Z,95992.86
2019-04-01T16:02:22.719Z,95989.06
2019-04-01T16:04:49.345Z,95988.05
2019-04-01T16:07:16.061Z,95988.59
2019-04-01T16:09:42.759Z,95987.97
2019-04-01T16:12:09.381Z,95986.02
2019-04-01T16:14:35.999Z,95981.27
2019-04-01T16:17:02.739Z,95978.45
2019-04-01T16:19:29.463Z,95982.35
2019-04-01T16:21:56.189Z,95983.83
2019-04-01T16:24:22.897Z,95988.14
2019-04-01T16:26:49.598Z,95980.77
2019-04-01T16:29:16.213Z,95978.36
2019-04-01T16:31:42.853Z,95988.14
2019-04-01T16:34:09.569Z,95990.09
2019-04-01T16:36:36.280Z,95980.37
2019-04-01T16:39:05.138Z,95989.61
2019-04-01T16:41:31.871Z,95990.55
2019-04-01T16:43:58.623Z,95984.44
2019-04-01T16:46:25.348Z,95984.70
2019-04-01T16:48:52.080Z,95987.34
2019-04-01T16:51:18.802Z,95990.28
2019-04-01T16:53:45.511Z,95996.21
2019-04-01T16:56:12.132Z,95990.81
2019-04-01T16:58:38.846Z,95989.16
2019-04-01T17:01:05.455Z,95996.96
2019-04-01T17:03:32.172Z,95987.81
2019-04-01T17:05:58.776Z,96001.67
2019-04-01T17:08:25.398Z,95998.59
2019-04-01T17:10:51.996Z,96005.02
2019-04-01T17:13:18.622Z,96004.10
2019-04-01T17:15:45.229Z,96006.95
2019-04-01T17:18:11.867Z,96009.81
2019-04-01T17:20:38.582Z,96005.30
2019-04-01T17:23:05.224Z,96004.54
2019-04-01T17:25:31.845Z,96013.33
2019-04-01T17:27:58.451Z,96003.65
2019-04-01T17:30:25.092Z,96011.30
2019-04-01T17:32:51.826Z,96011.10
2019-04-01T17:35:18.559Z,96012.23
2019-04-01T17:37:45.307Z,96016.81
2019-04-01T17:40:12.107Z,96014.14
2019-04-01T17:42:39.410Z,96015.50
2019-04-01T17:45:41.302Z,96012.80
2019-04-01T17:48:07.942Z,96012.83
2019-04-01T17:50:34.722Z,96010.11
2019-04-01T17:53:01.381Z,96015.81
2019-04-01T17:55:28.001Z,96018.51
2019-04-01T17:57:54.735Z,96023.39
2019-04-01T18:00:23.748Z,96020.13
2019-04-01T18:02:50.413Z,96023.92
2019-04-01T18:05:17.153Z,96027.69
2019-04-01T18:07:43.884Z,96033.61
2019-04-01T18:10:11.109Z,96036.57
2019-04-01T18:12:37.850Z,96040.02
2019-04-01T18:15:04.684Z,96035.39
2019-04-01T18:17:31.415Z,96043.16
2019-04-01T18:19:58.153Z,96037.19
2019-04-01T18:22:24.994Z,96049.56
2019-04-01T18:24:52.062Z,96050.27
2019-04-01T18:27:18.797Z,96052.88
2019-04-01T18:29:45.544Z,96057.67
2019-04-01T18:32:12.266Z,96066.17
2019-04-01T18:34:39.017Z,96066.61
2019-04-01T18:37:05.663Z,96068.73
2019-04-01T18:39:32.403Z,96073.00
2019-04-01T18:41:59.141Z,96065.48
2019-04-01T18:44:25.891Z,96070.11
2019-04-01T18:46:53.034Z,96070.13
2019-04-01T18:49:19.781Z,96073.66
2019-04-01T18:51:46.541Z,96070.94
2019-04-01T18:54:13.191Z,96073.08
2019-04-01T18:56:39.826Z,96078.94
2019-04-01T18:59:06.557Z,96082.87
2019-04-01T19:01:33.200Z,96080.09
2019-04-01T19:03:59.826Z,96085.39
2019-04-01T19:06:26.513Z,96086.46
2019-04-01T19:08:53.251Z,96086.09
2019-04-01T19:11:19.973Z,96085.19
2019-04-01T19:13:46.675Z,96085.59
2019-04-01T19:16:16.298Z,96091.16
2019-04-01T19:18:42.068Z,96089.19
2019-04-01T19:21:09.220Z,96091.81
2019-04-01T19:23:35.934Z,96090.42
2019-04-01T19:26:02.671Z,96095.42
2019-04-01T19:28:29.408Z,96098.81
2019-04-01T19:30:56.116Z,96097.14
2019-04-01T19:33:22.937Z,96097.67
2019-04-01T19:35:49.675Z,96101.43
2019-04-01T19:38:16.332Z,96103.30
2019-04-01T19:40:43.056Z,96100.05
2019-04-01T19:43:09.762Z,96102.98
2019-04-01T19:45:36.528Z,96097.81
2019-04-01T19:48:03.426Z,96095.89
2019-04-01T19:50:31.127Z,96091.81
2019-04-01T19:52:58.091Z,96096.34
2019-04-01T19:55:24.826Z,96094.42
2019-04-01T19:57:51.548Z,96098.09
2019-04-01T20:00:27.640Z,96099.11
2019-04-01T20:02:46.844Z,96098.25
2019-04-01T20:05:13.585Z,96101.43
2019-04-01T20:07:40.207Z,96096.78
2019-04-01T20:10:06.913Z,96101.82
2019-04-01T20:12:33.668Z,96101.46
2019-04-01T20:15:00.438Z,96104.92
2019-04-01T20:17:27.162Z,96100.31
2019-04-01T20:19:53.956Z,96102.62
2019-04-01T20:22:20.671Z,96103.41
2019-04-01T20:24:47.988Z,96092.06
2019-04-01T20:27:15.274Z,96096.00
2019-04-01T20:29:42.257Z,96092.45
2019-04-01T20:32:17.071Z,96094.81
2019-04-01T20:34:37.413Z,96092.08
2019-04-01T20:37:04.018Z,96092.02
2019-04-01T20:39:30.724Z,96086.84
2019-04-01T20:41:57.444Z,96091.59
2019-04-01T20:44:24.149Z,96084.78
2019-04-01T20:46:50.850Z,96087.12
2019-04-01T20:49:17.487Z,96088.66
2019-04-01T20:51:44.183Z,96089.14
2019-04-01T20:54:10.914Z,96090.67
2019-04-01T20:56:37.529Z,96084.70
2019-04-01T20:59:04.198Z,96088.39
2019-04-01T21:01:30.929Z,96088.30
2019-04-01T21:03:58.803Z,96086.61
2019-04-01T21:06:25.661Z,96080.91
2019-04-01T21:08:52.269Z,96088.12
2019-04-01T21:11:18.903Z,96084.57
2019-04-01T21:13:45.622Z,96083.41
2019-04-01T21:16:12.215Z,96080.39
2019-04-01T21:18:38.828Z,96074.66
2019-04-01T21:21:05.434Z,96072.69
2019-04-01T21:23:32.046Z,96075.84
2019-04-01T21:25:58.978Z,96077.37
2019-04-01T21:28:25.907Z,96075.97
2019-04-01T21:30:52.596Z,96072.69
2019-04-01T21:33:19.228Z,96077.23
2019-04-01T21:35:45.846Z,96076.89
2019-04-01T21:38:12.574Z,96078.77
2019-04-01T21:40:39.289Z,96070.84
2019-04-01T21:43:05.907Z,96068.05
2019-04-01T21:45:32.618Z,96063.18
2019-04-01T21:47:59.361Z,96064.17
2019-04-01T21:50:25.996Z,96061.91
2019-04-01T21:52:52.622Z,96059.93
2019-04-01T21:55:20.320Z,96061.48
2019-04-01T21:57:46.928Z,96061.89
2019-04-01T22:00:18.102Z,96066.91
2019-04-01T22:02:44.868Z,96061.25
2019-04-01T22:05:11.482Z,96066.84
2019-04-01T22:07:38.323Z,96063.52
2019-04-01T22:10:05.793Z,96059.73
2019-04-01T22:12:32.409Z,96063.20
2019-04-01T22:14:59.024Z,96056.73
2019-04-01T22:17:25.630Z,96057.98
2019-04-01T22:19:52.250Z,96055.48
2019-04-01T22:22:18.960Z,96053.49
2019-04-01T22:24:45.642Z,96048.86
2019-04-01T22:27:12.350Z,96045.89
2019-04-01T22:29:38.953Z,96049.20
2019-04-01T22:32:05.567Z,96053.22
2019-04-01T22:34:32.259Z,96049.44
2019-04-01T22:36:58.971Z,96048.79
2019-04-01T22:39:27.295Z,96041.18
2019-04-01T22:41:54.187Z,96045.59
2019-04-01T22:44:20.789Z,96046.29
2019-04-01T22:46:47.952Z,96049.66
2019-04-01T22:49:14.827Z,96048.03
2019-04-01T22:51:41.431Z,96046.88
2019-04-01T22:54:08.115Z,96044.66
2019-04-01T22:56:34.729Z,96039.47
2019-04-01T22:59:01.435Z,96042.91
2019-04-01T23:01:28.055Z,96032.19
2019-04-01T23:03:54.650Z,96033.53
2019-04-01T23:06:21.287Z,96041.27
2019-04-01T23:08:47.993Z,96033.62
2019-04-01T23:11:14.619Z,96039.34
2019-04-01T23:13:41.305Z,96027.91
2019-04-01T23:16:07.929Z,96030.13
2019-04-01T23:18:35.287Z,96028.36
2019-04-01T23:21:02.945Z,96026.89
2019-04-01T23:23:29.654Z,96020.91
2019-04-01T23:25:57.206Z,96025.60
2019-04-01T23:28:24.209Z,96024.27
2019-04-01T23:30:50.928Z,96021.59
2019-04-01T23:33:17.652Z,96019.07
2019-04-01T23:35:44.358Z,96024.42
2019-04-01T23:38:11.102Z,96017.44
2019-04-01T23:40:37.693Z,96017.37
2019-04-01T23:43:04.295Z,96020.86
2019-04-01T23:45:30.915Z,96013.65
2019-04-01T23:47:57.551Z,96007.64
2019-04-01T23:50:24.143Z,96014.60
2019-04-01T23:52:50.760Z,96011.45
2019-04-01T23:55:20.571Z,96011.75
2019-04-01T23:57:47.224Z,96008.05
